Time;durP1;ratioP1;P1;durP2;ratioP2;P2;SDS_P1;SDS_P2;PMS_P1;PMS_P2;Temp;Humidity;BMP_temperature;BMP_pressure;BME280_temperature;BME280_humidity;BME280_pressure;Samples;Min_cycle;Max_cycle;Signal;HPM_P1;HPM_P2
2021/07/12 00:02:05;;;;;;;;;4.00;3.00;;;;;20.25;67.35;100878.47;4996500;28;45682;-68
2021/07/12 00:04:30;;;;;;;;;5.25;4.00;;;;;20.22;67.10;100871.56;4996465;28;45741;-68
2021/07/12 00:06:55;;;;;;;;;2.50;2.00;;;;;20.18;67.70;100855.94;4996310;28;45394;-68
2021/07/12 00:09:21;;;;;;;;;4.25;4.00;;;;;20.17;68.04;100856.91;4996807;28;45362;-68
2021/07/12 00:11:46;;;;;;;;;3.25;3.00;;;;;20.12;67.89;100846.59;4995593;28;46509;-69
2021/07/12 00:14:12;;;;;;;;;4.25;3.00;;;;;20.08;68.16;100850.47;4995611;28;45467;-68
2021/07/12 00:16:38;;;;;;;;;2.75;2.75;;;;;20.10;67.89;100847.69;4995372;28;45538;-68
2021/07/12 00:19:03;;;;;;;;;6.00;3.75;;;;;20.06;68.14;100844.44;4995880;28;45535;-69
2021/07/12 00:21:29;;;;;;;;;3.75;3.25;;;;;19.98;67.98;100829.03;4996471;28;46532;-68
2021/07/12 00:23:54;;;;;;;;;5.25;4.00;;;;;19.96;68.17;100833.66;4995955;28;45361;-68
2021/07/12 00:26:20;;;;;;;;;4.00;4.00;;;;;19.94;68.35;100821.41;4995699;28;45392;-69
2021/07/12 00:28:45;;;;;;;;;5.00;5.00;;;;;19.87;68.69;100809.53;4996119;28;45499;-68
2021/07/12 00:31:11;;;;;;;;;4.00;3.75;;;;;19.89;68.50;100808.47;4995574;28;46636;-68
2021/07/12 00:33:39;;;;;;;;;2.75;2.75;;;;;19.85;69.05;100809.69;4996015;28;45325;-68
2021/07/12 00:36:05;;;;;;;;;6.50;4.75;;;;;19.76;69.18;100795.25;4996036;28;45422;-68
2021/07/12 00:38:31;;;;;;;;;3.50;3.50;;;;;19.82;68.75;100809.91;4995856;28;45433;-68
2021/07/12 00:40:57;;;;;;;;;3.25;3.00;;;;;19.76;68.85;100799.75;4995191;28;47157;-68
2021/07/12 00:43:22;;;;;;;;;6.00;3.50;;;;;19.73;69.46;100800.84;4995294;28;45503;-68
2021/07/12 00:45:48;;;;;;;;;3.75;3.75;;;;;19.71;69.66;100807.25;4995774;28;45384;-68
2021/07/12 00:48:13;;;;;;;;;3.00;3.00;;;;;19.67;69.73;100832.47;4990074;28;45489;-69
2021/07/12 00:50:42;;;;;;;;;5.25;4.75;;;;;19.69;69.96;100854.53;4995261;28;47398;-67
2021/07/12 00:53:09;;;;;;;;;3.75;3.75;;;;;19.67;69.81;100851.13;4995379;28;45764;-67
2021/07/12 00:55:46;;;;;;;;;4.50;4.00;;;;;19.65;70.23;100845.94;4995455;28;45493;-67
2021/07/12 00:58:14;;;;;;;;;5.25;4.00;;;;;19.61;70.33;100848.97;4981445;28;45375;-67
2021/07/12 01:00:42;;;;;;;;;3.25;3.25;;;;;19.61;69.99;100852.47;4995453;28;46545;-70
2021/07/12 01:03:10;;;;;;;;;5.00;5.00;;;;;19.56;69.93;100851.94;4995650;28;45473;-67
2021/07/12 01:05:37;;;;;;;;;5.25;4.00;;;;;19.58;70.09;100843.84;4995542;28;45483;-67
2021/07/12 01:08:03;;;;;;;;;5.50;5.00;;;;;19.60;69.87;100848.09;4995244;28;45511;-67
2021/07/12 01:10:29;;;;;;;;;3.00;3.00;;;;;19.60;69.87;100853.44;4994903;28;46308;-67
2021/07/12 01:13:03;;;;;;;;;4.50;4.50;;;;;19.61;69.95;100840.97;4994963;28;45306;-67
2021/07/12 01:15:37;;;;;;;;;3.75;3.75;;;;;19.63;70.51;100839.00;4995584;28;45312;-68
2021/07/12 01:18:30;;;;;;;;;3.50;3.50;;;;;19.63;70.34;100823.00;4995217;28;45562;-67
2021/07/12 01:21:52;;;;;;;;;4.00;4.00;;;;;19.65;70.44;100813.09;4994554;28;47327;-67
2021/07/12 01:24:45;;;;;;;;;4.25;1.50;;;;;19.67;70.44;100800.47;4995358;28;45472;-68
2021/07/12 01:27:29;;;;;;;;;4.00;3.75;;;;;19.65;70.08;100792.59;4995212;28;45349;-68
2021/07/12 01:30:16;;;;;;;;;5.25;5.25;;;;;19.67;70.15;100787.13;4994769;28;45568;-68
2021/07/12 01:32:56;;;;;;;;;5.75;4.00;;;;;19.67;70.55;100773.81;4994772;28;46806;-68
2021/07/12 01:35:22;;;;;;;;;5.00;5.00;;;;;19.68;70.06;100775.50;4994156;28;45531;-68
2021/07/12 01:38:28;;;;;;;;;4.50;4.50;;;;;19.68;70.42;100770.16;4994803;28;45350;-67
2021/07/12 01:41:10;;;;;;;;;3.75;3.75;;;;;19.67;70.73;100769.31;4995027;28;45456;-67
2021/07/12 01:44:00;;;;;;;;;6.50;4.75;;;;;19.66;70.85;100764.13;4994398;28;46298;-68
2021/07/12 01:46:31;;;;;;;;;5.00;5.00;;;;;19.63;70.58;100754.56;4974137;28;46110;-67
2021/07/12 01:49:19;;;;;;;;;3.75;3.75;;;;;19.64;70.21;100763.41;4994839;28;45393;-67
2021/07/12 01:52:12;;;;;;;;;5.50;5.50;;;;;19.64;71.00;100758.09;4992508;28;45436;-67
2021/07/12 01:54:41;;;;;;;;;4.75;4.50;;;;;19.61;71.17;100752.97;4994438;28;46753;-67
2021/07/12 01:57:20;;;;;;;;;4.00;4.00;;;;;19.58;71.02;100742.56;4994190;28;46855;-67
2021/07/12 02:00:08;;;;;;;;;4.50;4.25;;;;;19.60;70.62;100752.13;4974070;28;45384;-67
2021/07/12 02:02:34;;;;;;;;;4.50;3.75;;;;;19.60;71.18;100751.28;4994343;28;45544;-67
2021/07/12 02:05:04;;;;;;;;;6.25;4.25;;;;;19.57;70.80;100739.00;4994082;28;46358;-68
2021/07/12 02:07:33;;;;;;;;;4.00;4.00;;;;;19.58;71.08;100739.88;4994159;28;45423;-68
2021/07/12 02:10:01;;;;;;;;;5.25;5.25;;;;;19.59;70.96;100753.13;4994584;28;45793;-67
2021/07/12 02:12:28;;;;;;;;;6.50;6.50;;;;;19.59;71.12;100746.91;4994701;28;45521;-67
2021/07/12 02:14:56;;;;;;;;;6.00;5.25;;;;;19.58;70.85;100748.72;4994281;28;47445;-68
2021/07/12 02:17:22;;;;;;;;;6.00;4.00;;;;;19.62;71.18;100746.66;4994316;28;45499;-67
2021/07/12 02:19:50;;;;;;;;;4.00;4.00;;;;;19.55;70.98;100730.31;4994438;28;45408;-67
2021/07/12 02:22:16;;;;;;;;;7.25;5.75;;;;;19.66;70.93;100756.97;4994152;28;45400;-67
2021/07/12 02:24:44;;;;;;;;;5.25;5.25;;;;;19.67;71.33;100747.16;4994141;28;45845;-67
2021/07/12 02:27:09;;;;;;;;;4.25;3.75;;;;;19.68;70.69;100754.16;4994719;28;45732;-67
2021/07/12 02:29:36;;;;;;;;;2.75;2.75;;;;;19.69;70.69;100755.91;4994183;28;45521;-68
2021/07/12 02:32:02;;;;;;;;;3.75;3.75;;;;;19.71;70.62;100767.25;4994533;28;45505;-67
2021/07/12 02:34:28;;;;;;;;;5.50;4.75;;;;;19.72;70.63;100758.28;4994009;28;46458;-66
2021/07/12 02:36:56;;;;;;;;;5.00;3.75;;;;;19.71;70.27;100759.28;4993224;28;45726;-67
2021/07/12 02:39:22;;;;;;;;;7.25;5.00;;;;;19.75;70.79;100758.06;4994766;28;45329;-67
2021/07/12 02:41:48;;;;;;;;;6.75;5.75;;;;;19.76;70.79;100757.06;4993875;28;45532;-67
2021/07/12 02:44:15;;;;;;;;;5.50;3.00;;;;;19.76;70.35;100743.75;4994061;28;45421;-67
2021/07/12 02:46:41;;;;;;;;;4.75;3.50;;;;;19.75;70.94;100744.72;4993887;28;45763;-67
2021/07/12 02:49:07;;;;;;;;;3.25;3.25;;;;;19.78;70.33;100741.78;4994044;28;45746;-67
2021/07/12 02:51:58;;;;;;;;;4.00;4.00;;;;;19.79;70.50;100746.19;4994438;28;45453;-67
2021/07/12 02:54:39;;;;;;;;;4.75;4.75;;;;;19.80;70.63;100747.88;4984067;28;47238;-67
2021/07/12 02:57:04;;;;;;;;;3.00;3.00;;;;;19.81;70.62;100752.22;4995348;28;46643;-67
2021/07/12 02:59:30;;;;;;;;;5.25;5.25;;;;;19.83;70.64;100760.09;4997193;28;45696;-67
2021/07/12 03:01:55;;;;;;;;;4.00;3.00;;;;;19.83;70.99;100758.25;4997122;28;45373;-67
2021/07/12 03:04:20;;;;;;;;;4.00;4.00;;;;;19.85;70.97;100760.81;4996866;28;51356;-68
2021/07/12 03:06:50;;;;;;;;;3.75;3.75;;;;;19.85;71.14;100748.34;4996272;28;52131;-68
2021/07/12 03:09:25;;;;;;;;;5.75;4.25;;;;;19.86;71.07;100739.34;4995640;28;45514;-67
2021/07/12 03:11:55;;;;;;;;;5.50;4.25;;;;;19.85;71.09;100727.00;4996906;28;45495;-68
2021/07/12 03:14:45;;;;;;;;;5.00;5.00;;;;;19.82;71.43;100719.25;4996924;28;45672;-68
2021/07/12 03:17:14;;;;;;;;;3.25;3.25;;;;;19.81;71.89;100723.72;4997057;28;45456;-68
2021/07/12 03:19:41;;;;;;;;;5.00;4.50;;;;;19.77;72.20;100716.09;4996543;28;45393;-68
2021/07/12 03:22:09;;;;;;;;;3.75;3.75;;;;;19.75;72.04;100718.91;4997097;28;45472;-69
2021/07/12 03:24:37;;;;;;;;;4.50;4.50;;;;;19.74;72.06;100717.22;4996906;28;46713;-67
2021/07/12 03:27:06;;;;;;;;;4.25;3.75;;;;;19.71;72.17;100717.44;4996783;28;45807;-68
2021/07/12 03:29:36;;;;;;;;;5.00;5.00;;;;;19.74;71.93;100711.03;4996538;28;45585;-68
2021/07/12 03:32:03;;;;;;;;;3.00;3.00;;;;;19.71;72.47;100705.94;4995135;28;45569;-67
2021/07/12 03:34:30;;;;;;;;;5.25;5.25;;;;;19.69;72.26;100699.91;4995271;28;46690;-68
2021/07/12 03:36:56;;;;;;;;;6.25;5.00;;;;;19.70;71.96;100691.78;4995506;28;45741;-67
2021/07/12 03:39:22;;;;;;;;;7.50;6.50;;;;;19.68;72.09;100691.06;4996208;28;45305;-68
2021/07/12 03:41:49;;;;;;;;;8.25;8.25;;;;;19.64;72.13;100686.94;4995774;28;45444;-67
2021/07/12 03:44:15;;;;;;;;;7.50;7.50;;;;;19.64;72.07;100686.94;4996225;28;46530;-67
2021/07/12 03:46:42;;;;;;;;;8.50;8.00;;;;;19.67;72.57;100693.81;4996321;28;45521;-68
2021/07/12 03:49:13;;;;;;;;;5.50;5.50;;;;;19.66;72.44;100687.66;4996150;28;45566;-67
2021/07/12 03:51:40;;;;;;;;;8.00;6.00;;;;;19.68;72.80;100685.72;4996679;28;45518;-68
2021/07/12 03:54:05;;;;;;;;;8.25;6.00;;;;;19.66;72.09;100682.31;4996547;28;46692;-67
2021/07/12 03:56:32;;;;;;;;;7.50;6.00;;;;;19.67;72.09;100685.81;4996042;28;45600;-67
2021/07/12 03:58:57;;;;;;;;;6.00;5.50;;;;;19.66;72.42;100684.97;4996243;28;45406;-68
2021/07/12 04:01:23;;;;;;;;;5.50;4.75;;;;;19.62;72.41;100680.88;4995782;28;45352;-68
2021/07/12 04:03:50;;;;;;;;;6.25;5.25;;;;;19.63;72.32;100684.38;4995719;28;47233;-67
2021/07/12 04:06:16;;;;;;;;;5.75;5.00;;;;;19.62;72.33;100675.53;4994680;28;46364;-68
2021/07/12 04:08:41;;;;;;;;;5.25;5.25;;;;;19.61;72.39;100673.84;4995423;28;45472;-67
2021/07/12 04:11:07;;;;;;;;;10.75;4.25;;;;;19.51;72.36;100654.22;4995928;28;45592;-67
2021/07/12 04:13:32;;;;;;;;;10.00;8.00;;;;;19.62;72.59;100670.19;4995823;28;47436;-68
2021/07/12 04:15:58;;;;;;;;;6.25;5.25;;;;;19.61;72.03;100667.69;4996080;28;45242;-69
2021/07/12 04:18:23;;;;;;;;;6.00;5.75;;;;;19.62;72.28;100669.34;4995911;28;45266;-68
2021/07/12 04:20:49;;;;;;;;;4.25;4.00;;;;;19.63;72.24;100674.59;4995797;28;45431;-67
2021/07/12 04:23:15;;;;;;;;;3.00;3.00;;;;;19.63;71.97;100671.94;4994199;28;47670;-68
2021/07/12 04:25:40;;;;;;;;;4.75;3.00;;;;;19.63;71.99;100663.94;4995677;28;45389;-71
2021/07/12 04:28:06;;;;;;;;;4.50;4.50;;;;;19.58;72.24;100663.41;4995914;28;45459;-68
2021/07/12 04:30:31;;;;;;;;;3.25;3.25;;;;;19.61;71.74;100655.19;4996144;28;45368;-67
2021/07/12 04:32:57;;;;;;;;;5.00;5.00;;;;;19.59;72.15;100657.16;4994739;28;45704;-68
2021/07/12 04:35:22;;;;;;;;;4.50;4.50;;;;;19.58;72.50;100657.25;4994828;28;45454;-67
2021/07/12 04:37:48;;;;;;;;;5.00;4.00;;;;;19.50;71.79;100650.69;4995320;28;45432;-68
2021/07/12 04:40:14;;;;;;;;;6.00;5.25;;;;;19.59;71.86;100659.81;4995351;28;45721;-68
2021/07/12 04:42:39;;;;;;;;;4.50;3.25;;;;;19.60;72.41;100663.31;4995284;28;46036;-67
2021/07/12 04:45:05;;;;;;;;;3.25;3.25;;;;;19.57;72.23;100661.69;4995511;28;45389;-67
2021/07/12 04:47:31;;;;;;;;;5.50;4.25;;;;;19.62;72.33;100656.88;4994694;28;45406;-68
2021/07/12 04:49:57;;;;;;;;;3.25;3.25;;;;;19.63;72.83;100663.06;4995369;28;45504;-68
2021/07/12 04:52:22;;;;;;;;;4.00;4.00;;;;;19.60;73.35;100661.50;4995359;28;45448;-67
2021/07/12 04:54:49;;;;;;;;;6.00;4.00;;;;;19.63;73.33;100671.06;4994226;28;45385;-67
2021/07/12 04:57:14;;;;;;;;;3.00;3.00;;;;;19.62;72.05;100670.19;4992844;28;45590;-67
2021/07/12 04:59:40;;;;;;;;;3.25;2.75;;;;;19.64;72.36;100670.09;4995224;28;45522;-67
2021/07/12 05:02:06;;;;;;;;;3.00;3.00;;;;;19.64;72.89;100678.94;4994571;28;46439;-67
2021/07/12 05:04:32;;;;;;;;;5.75;3.25;;;;;19.67;72.81;100669.84;4994774;28;45541;-67
2021/07/12 05:06:58;;;;;;;;;10.75;5.00;;;;;19.67;73.26;100681.34;4994384;28;45475;-67
2021/07/12 05:09:23;;;;;;;;;4.75;4.75;;;;;19.66;73.16;100674.31;4994712;28;45424;-67
2021/07/12 05:11:49;;;;;;;;;3.50;3.50;;;;;19.69;72.62;100675.91;4994496;28;52022;-67
2021/07/12 05:14:15;;;;;;;;;2.75;1.75;;;;;19.71;72.85;100668.63;4994769;28;45720;-67
2021/07/12 05:16:40;;;;;;;;;4.00;4.00;;;;;19.72;72.79;100672.97;4993884;28;45538;-69
2021/07/12 05:19:06;;;;;;;;;4.50;3.75;;;;;19.74;73.19;100676.38;4994210;28;45524;-68
2021/07/12 05:21:32;;;;;;;;;4.00;3.00;;;;;19.71;73.38;100669.47;4995150;28;45438;-68
2021/07/12 05:23:57;;;;;;;;;4.50;3.75;;;;;19.73;72.91;100659.53;4994382;28;45416;-68
2021/07/12 05:26:23;;;;;;;;;3.00;3.00;;;;;19.76;72.79;100659.25;4994396;28;45460;-68
2021/07/12 05:28:48;;;;;;;;;4.00;3.50;;;;;19.75;72.87;100654.91;4994270;28;45511;-67
2021/07/12 05:31:13;;;;;;;;;4.75;3.50;;;;;19.76;73.25;100653.94;4994062;28;45338;-67
2021/07/12 05:33:39;;;;;;;;;4.75;3.50;;;;;19.80;73.11;100651.88;4994457;28;45594;-67
2021/07/12 05:36:04;;;;;;;;;3.50;3.50;;;;;19.77;73.20;100646.78;4994438;28;45555;-68
2021/07/12 05:38:30;;;;;;;;;3.75;3.75;;;;;19.79;73.52;100659.03;4994400;28;45656;-69
2021/07/12 05:40:55;;;;;;;;;6.00;4.00;;;;;19.81;73.78;100658.88;4993953;28;46391;-68
2021/07/12 05:43:20;;;;;;;;;3.25;3.00;;;;;19.80;73.58;100659.88;4994466;28;45392;-69
2021/07/12 05:45:46;;;;;;;;;5.00;3.75;;;;;19.77;73.42;100658.28;4993454;28;45503;-68
2021/07/12 05:48:11;;;;;;;;;5.00;5.00;;;;;19.79;73.23;100659.03;4994873;28;45266;-67
2021/07/12 05:50:37;;;;;;;;;4.25;4.25;;;;;19.76;72.84;100655.75;4993110;28;46174;-68
2021/07/12 05:53:04;;;;;;;;;5.00;5.00;;;;;19.76;72.42;100669.09;4994078;28;45435;-69
2021/07/12 05:55:29;;;;;;;;;5.00;5.00;;;;;19.71;72.65;100661.47;4994472;28;45562;-68
2021/07/12 05:57:54;;;;;;;;;4.75;4.50;;;;;19.66;73.34;100654.81;4993513;28;45463;-67
2021/07/12 06:00:20;;;;;;;;;5.00;4.50;;;;;19.63;73.36;100660.38;4993760;28;53764;-67
2021/07/12 06:02:47;;;;;;;;;5.00;4.50;;;;;19.56;73.05;100646.69;4994150;28;45425;-70
2021/07/12 06:05:12;;;;;;;;;4.50;4.50;;;;;19.59;73.70;100653.59;4993460;28;45435;-68
2021/07/12 06:07:38;;;;;;;;;3.75;3.75;;;;;19.56;73.12;100639.53;4991585;28;45552;-68
2021/07/12 06:10:05;;;;;;;;;3.00;3.00;;;;;19.55;73.80;100640.50;4993334;28;47076;-69
2021/07/12 06:12:31;;;;;;;;;4.00;4.00;;;;;19.54;74.14;100645.97;4990076;28;45495;-69
2021/07/12 06:14:56;;;;;;;;;5.50;5.50;;;;;19.54;73.76;100640.66;4992528;28;45888;-68
2021/07/12 06:17:21;;;;;;;;;6.25;5.00;;;;;19.53;73.90;100641.63;4993576;28;45487;-68
2021/07/12 06:19:47;;;;;;;;;5.00;5.00;;;;;19.54;74.01;100640.66;4990965;28;46786;-68
2021/07/12 06:22:12;;;;;;;;;5.00;4.50;;;;;19.45;74.47;100626.25;4991390;28;45354;-68
2021/07/12 06:24:37;;;;;;;;;7.75;6.00;;;;;19.52;74.22;100635.44;4994453;28;45787;-68
2021/07/12 06:27:03;;;;;;;;;7.00;6.00;;;;;19.53;74.30;100644.28;4991337;28;45480;-68
2021/07/12 06:29:28;;;;;;;;;6.75;4.00;;;;;19.50;74.22;100641.88;4993671;28;45510;-68
2021/07/12 06:31:55;;;;;;;;;7.25;5.25;;;;;19.48;74.64;100647.31;4996105;28;45411;-69
2021/07/12 06:34:21;;;;;;;;;6.50;6.00;;;;;19.43;74.91;100641.53;4997111;28;45458;-68
2021/07/12 06:36:47;;;;;;;;;5.00;5.00;;;;;19.39;74.97;100636.56;4997104;28;45387;-69
2021/07/12 06:39:12;;;;;;;;;7.50;6.00;;;;;19.41;75.45;100632.78;5008160;28;48281;-68
2021/07/12 06:41:38;;;;;;;;;10.50;8.00;;;;;19.42;75.19;100629.19;4994103;28;45388;-68
2021/07/12 06:44:04;;;;;;;;;10.50;10.00;;;;;19.41;75.44;100619.47;4996728;28;45505;-69
2021/07/12 06:46:29;;;;;;;;;10.50;8.00;;;;;19.39;75.21;100616.09;4996943;28;45895;-70
2021/07/12 06:48:54;;;;;;;;;10.75;9.00;;;;;19.37;75.69;100603.84;4997262;28;46205;-69
2021/07/12 06:51:20;;;;;;;;;7.50;7.50;;;;;19.35;75.41;100600.47;4997455;28;45452;-69
2021/07/12 06:53:46;;;;;;;;;9.50;6.50;;;;;19.33;75.79;100603.28;4996359;28;45335;-68
2021/07/12 06:56:13;;;;;;;;;10.00;5.75;;;;;19.20;75.74;100582.09;4996390;28;45444;-68
2021/07/12 06:58:38;;;;;;;;;8.75;7.25;;;;;19.32;75.43;100600.75;4996370;28;46414;-68
2021/07/12 07:01:04;;;;;;;;;7.25;6.75;;;;;19.36;76.05;100604.81;4996980;28;45400;-68
2021/07/12 07:03:29;;;;;;;;;5.50;5.50;;;;;19.37;76.43;100598.53;4996926;28;45440;-68
2021/07/12 07:05:54;;;;;;;;;5.00;5.00;;;;;19.34;75.96;100602.28;4996891;28;45475;-68
2021/07/12 07:08:20;;;;;;;;;7.00;6.25;;;;;19.38;75.82;100618.91;4996265;28;46190;-68
2021/07/12 07:10:45;;;;;;;;;5.25;4.50;;;;;19.34;76.54;100618.28;4995660;28;45361;-69
2021/07/12 07:13:10;;;;;;;;;6.75;6.75;;;;;19.29;76.29;100613.31;4996244;28;45290;-68
2021/07/12 07:15:36;;;;;;;;;7.00;7.00;;;;;19.32;76.07;100619.41;4995946;28;45599;-70
2021/07/12 07:18:01;;;;;;;;;10.00;6.75;;;;;19.37;76.19;100620.72;4995419;28;46367;-68
2021/07/12 07:20:27;;;;;;;;;6.75;6.75;;;;;19.37;76.42;100615.38;4996348;28;45494;-68
2021/07/12 07:22:53;;;;;;;;;8.50;7.00;;;;;19.41;75.80;100615.97;4996518;28;45810;-68
2021/07/12 07:25:18;;;;;;;;;8.75;8.00;;;;;19.44;76.40;100629.03;4996454;28;45484;-68
2021/07/12 07:27:44;;;;;;;;;8.75;6.75;;;;;19.48;76.88;100639.34;4995884;28;45634;-69
2021/07/12 07:30:11;;;;;;;;;7.50;6.75;;;;;19.50;76.49;100647.19;4996625;28;45920;-68
2021/07/12 07:32:37;;;;;;;;;7.25;6.50;;;;;19.51;76.61;100655.06;4995229;28;45454;-68
2021/07/12 07:35:04;;;;;;;;;8.00;8.00;;;;;19.54;77.11;100659.31;4996296;28;45426;-68
2021/07/12 07:37:29;;;;;;;;;7.75;6.50;;;;;19.53;76.28;100644.28;4995221;28;45501;-68
2021/07/12 07:39:55;;;;;;;;;10.25;8.00;;;;;19.53;77.19;100638.97;4995496;28;45450;-68
2021/07/12 07:42:20;;;;;;;;;11.00;7.50;;;;;19.56;76.76;100625.38;4995726;28;45293;-68
2021/07/12 07:44:45;;;;;;;;;7.00;7.00;;;;;19.60;77.40;100623.34;4996304;28;45446;-68
2021/07/12 07:47:11;;;;;;;;;12.50;8.00;;;;;19.60;77.22;100634.84;4995809;28;55217;-68
2021/07/12 07:49:36;;;;;;;;;9.25;8.25;;;;;19.68;77.39;100648.41;4995914;28;45451;-69
2021/07/12 07:52:02;;;;;;;;;9.25;9.25;;;;;19.70;77.69;100646.44;4996425;28;45319;-68
2021/07/12 07:54:28;;;;;;;;;9.25;9.25;;;;;19.76;77.84;100651.25;4996518;28;45603;-68
2021/07/12 07:56:53;;;;;;;;;11.25;7.75;;;;;19.79;78.02;100650.19;4994738;28;45423;-68
2021/07/12 07:59:19;;;;;;;;;9.25;8.75;;;;;19.81;78.19;100649.06;4995192;28;45395;-67
2021/07/12 08:01:45;;;;;;;;;7.25;7.25;;;;;19.85;77.29;100640.81;4996267;28;45668;-67
2021/07/12 08:04:10;;;;;;;;;11.00;9.25;;;;;19.90;77.81;100642.13;4995019;28;45522;-67
2021/07/12 08:06:36;;;;;;;;;13.75;10.25;;;;;19.97;77.50;100645.97;4996094;28;46420;-67
2021/07/12 08:09:02;;;;;;;;;9.75;9.75;;;;;20.01;77.64;100641.22;4995933;28;45455;-68
2021/07/12 08:11:27;;;;;;;;;11.25;7.25;;;;;20.04;77.30;100631.13;4995964;28;45442;-67
2021/07/12 08:13:52;;;;;;;;;7.75;6.50;;;;;20.12;77.24;100633.16;4995494;28;45543;-67
2021/07/12 08:16:18;;;;;;;;;8.25;8.25;;;;;20.20;76.93;100628.03;4995827;28;45580;-68
2021/07/12 08:18:44;;;;;;;;;10.25;10.00;;;;;20.32;76.91;100626.97;4995179;28;45651;-68
2021/07/12 08:21:11;;;;;;;;;8.75;6.75;;;;;20.43;77.04;100622.53;4995978;28;45631;-67
2021/07/12 08:23:39;;;;;;;;;9.75;8.75;;;;;20.62;76.45;100625.34;4995382;28;45595;-69
2021/07/12 08:26:04;;;;;;;;;10.75;9.75;;;;;20.77;75.69;100623.97;4995432;28;46411;-69
2021/07/12 08:28:30;;;;;;;;;9.25;9.25;;;;;20.90;75.35;100638.97;4995588;28;45486;-68
2021/07/12 08:30:55;;;;;;;;;9.00;8.00;;;;;20.97;75.89;100624.91;4995031;28;45357;-67
2021/07/12 08:33:22;;;;;;;;;10.75;9.75;;;;;21.04;75.07;100641.25;4994312;28;45458;-68
2021/07/12 08:35:47;;;;;;;;;8.00;7.50;;;;;21.07;75.49;100644.50;4995058;28;46388;-68
2021/07/12 08:38:13;;;;;;;;;10.50;10.50;;;;;21.17;75.79;100654.38;4994850;28;45431;-68
2021/07/12 08:40:39;;;;;;;;;13.00;8.75;;;;;21.22;74.35;100652.97;4995700;28;45477;-69
2021/07/12 08:43:04;;;;;;;;;8.75;8.00;;;;;21.22;74.97;100658.31;4995063;28;45507;-68
2021/07/12 08:45:29;;;;;;;;;10.25;8.25;;;;;21.20;74.75;100654.13;4996121;28;49437;-68
2021/07/12 08:47:56;;;;;;;;;8.50;8.00;;;;;21.19;74.57;100658.59;4995128;28;45576;-68
2021/07/12 08:50:23;;;;;;;;;11.50;8.00;;;;;21.19;75.29;100668.44;4995199;28;45565;-68
2021/07/12 08:52:50;;;;;;;;;9.00;8.25;;;;;21.17;74.52;100663.22;4994898;28;45542;-67
2021/07/12 08:55:16;;;;;;;;;10.50;7.50;;;;;21.11;74.83;100659.28;4993553;28;45438;-70
2021/07/12 08:58:09;;;;;;;;;13.75;8.75;;;;;21.09;75.44;100660.41;4995142;28;45730;-68
2021/07/12 09:00:50;;;;;;;;;10.25;7.25;;;;;21.07;74.58;100649.00;4990994;28;45492;-70
2021/07/12 09:03:18;;;;;;;;;8.50;8.00;;;;;21.06;74.79;100648.16;4990842;28;45472;-67
2021/07/12 09:06:07;;;;;;;;;12.75;11.00;;;;;21.10;75.20;100657.59;4994635;28;46101;-67
2021/07/12 09:08:39;;;;;;;;;13.75;10.00;;;;;21.06;74.52;100653.50;4993860;28;45518;-68
2021/07/12 09:11:08;;;;;;;;;11.25;9.00;;;;;20.96;74.97;100659.78;4993565;28;45447;-67
2021/07/12 09:13:46;;;;;;;;;13.00;11.25;;;;;20.85;75.38;100655.38;4995011;28;45434;-68
2021/07/12 09:16:29;;;;;;;;;8.50;8.00;;;;;20.77;75.43;100657.88;4992732;28;46306;-68
2021/07/12 09:19:30;;;;;;;;;14.00;13.50;;;;;20.63;75.70;100669.75;4994194;28;45777;-68
2021/07/12 09:21:58;;;;;;;;;12.75;12.50;;;;;20.54;75.69;100676.72;4993716;28;45532;-68
2021/07/12 09:24:49;;;;;;;;;14.75;14.25;;;;;20.50;76.76;100682.44;4995058;28;45290;-67
2021/07/12 09:27:19;;;;;;;;;8.75;7.75;;;;;20.49;76.67;100686.94;4992671;28;46580;-70
2021/07/12 09:29:53;;;;;;;;;14.25;13.25;;;;;20.49;76.65;100688.78;4994777;28;45461;-68
2021/07/12 09:32:22;;;;;;;;;10.50;10.50;;;;;20.44;77.26;100681.13;4994272;28;45419;-68
2021/07/12 09:34:49;;;;;;;;;14.00;9.75;;;;;20.55;77.12;100691.75;4994902;28;45341;-67
2021/07/12 09:37:17;;;;;;;;;13.00;12.00;;;;;20.59;77.59;100695.88;4993110;28;46658;-68
2021/07/12 09:39:52;;;;;;;;;11.25;10.00;;;;;20.63;77.16;100695.63;4993642;28;45536;-70
2021/07/12 09:42:21;;;;;;;;;11.25;10.50;;;;;20.65;77.57;100688.31;4993356;28;45496;-68
2021/07/12 09:44:52;;;;;;;;;12.75;12.25;;;;;20.74;77.87;100700.88;4993225;28;45546;-69
2021/07/12 09:47:20;;;;;;;;;14.25;11.25;;;;;20.76;77.73;100707.75;4995309;28;46124;-69
2021/07/12 09:49:46;;;;;;;;;11.50;8.00;;;;;20.74;77.35;100700.88;4994234;28;45503;-67
2021/07/12 09:52:14;;;;;;;;;8.50;7.25;;;;;20.74;77.14;100701.72;4994209;28;45578;-69
2021/07/12 09:54:42;;;;;;;;;7.75;6.75;;;;;20.70;77.15;100702.13;4993550;28;46814;-68
2021/07/12 09:57:17;;;;;;;;;13.00;9.00;;;;;20.70;78.09;100704.78;4992142;28;46459;-68
2021/07/12 09:59:52;;;;;;;;;9.50;8.50;;;;;20.68;78.34;100702.25;4995251;28;45510;-69
2021/07/12 10:02:24;;;;;;;;;11.50;9.75;;;;;20.72;77.82;100694.81;4994460;28;45464;-68
2021/07/12 10:04:54;;;;;;;;;14.50;9.75;;;;;20.67;77.71;100697.88;4993562;28;45555;-68
2021/07/12 10:07:20;;;;;;;;;10.50;9.50;;;;;20.67;77.88;100700.53;4992652;28;45583;-68
2021/07/12 10:09:46;;;;;;;;;11.75;10.50;;;;;20.72;77.93;100701.00;4993577;28;45700;-68
2021/07/12 10:12:12;;;;;;;;;11.75;9.25;;;;;20.67;77.55;100702.38;4982749;28;45456;-68
2021/07/12 10:14:37;;;;;;;;;13.75;11.25;;;;;20.82;77.95;100709.91;4991534;28;45531;-71
2021/07/12 10:17:07;;;;;;;;;12.75;9.50;;;;;21.00;77.69;100696.78;4994493;28;45456;-69
2021/07/12 10:19:32;;;;;;;;;8.50;8.50;;;;;21.42;77.80;100706.53;4994381;28;45533;-69
2021/07/12 10:21:58;;;;;;;;;15.25;10.75;;;;;21.79;76.71;100707.59;4994255;28;45354;-71
2021/07/12 10:24:33;;;;;;;;;9.50;8.00;;;;;22.39;75.91;100697.63;4995287;28;45425;-69
2021/07/12 10:27:00;;;;;;;;;10.00;9.00;;;;;23.18;74.01;100693.75;4994355;28;46232;-69
2021/07/12 10:29:33;;;;;;;;;8.25;8.00;;;;;23.67;73.28;100691.66;4994196;28;45626;-69
2021/07/12 10:32:07;;;;;;;;;8.00;7.25;;;;;24.20;71.02;100691.66;4996638;28;45492;-69
2021/07/12 10:34:43;;;;;;;;;9.75;7.25;;;;;24.71;70.80;100676.63;4998210;28;45487;-68
2021/07/12 10:37:17;;;;;;;;;6.00;5.75;;;;;25.08;68.84;100683.56;4993477;28;45459;-68
2021/07/12 10:40:05;;;;;;;;;11.75;10.00;;;;;25.50;68.66;100686.22;4997198;28;45310;-69
2021/07/12 10:42:42;;;;;;;;;9.50;8.25;;;;;26.31;68.03;100697.28;4997460;28;45765;-68
2021/07/12 10:45:08;;;;;;;;;9.00;8.00;;;;;26.67;64.86;100692.41;4999008;28;45469;-68
2021/07/12 10:47:45;;;;;;;;;9.00;8.25;;;;;26.73;63.77;100686.34;4996440;28;45440;-68
2021/07/12 10:50:36;;;;;;;;;9.00;7.50;;;;;26.93;64.88;100678.69;4997793;28;45598;-68
2021/07/12 10:53:14;;;;;;;;;12.00;10.75;;;;;27.06;64.57;100679.00;4999774;28;45510;-68
2021/07/12 10:55:41;;;;;;;;;9.75;9.75;;;;;27.12;64.24;100670.22;4997522;28;45496;-68
2021/07/12 10:58:19;;;;;;;;;12.50;10.25;;;;;27.27;62.81;100670.31;4998494;28;45317;-70
2021/07/12 11:00:47;;;;;;;;;10.25;10.25;;;;;27.48;62.27;100659.75;4997532;28;45468;-68
2021/07/12 11:03:39;;;;;;;;;7.75;7.75;;;;;27.64;61.98;100652.56;4997309;28;45548;-69
2021/07/12 11:06:07;;;;;;;;;9.50;8.25;;;;;27.91;62.46;100651.22;4998157;28;45665;-69
2021/07/12 11:08:53;;;;;;;;;11.00;10.25;;;;;28.31;60.57;100650.03;4994149;28;45658;-69
2021/07/12 11:11:18;;;;;;;;;10.00;7.25;;;;;28.45;60.90;100648.41;4996646;28;45680;-69
2021/07/12 11:14:01;;;;;;;;;11.00;9.33;;;;;28.35;59.32;100637.88;4996503;28;45475;-69
2021/07/12 11:16:36;;;;;;;;;9.00;8.75;;;;;28.31;59.60;100644.63;4996003;28;45542;-69
2021/07/12 11:19:28;;;;;;;;;9.50;8.50;;;;;28.01;59.98;100641.84;4994686;28;45625;-68
2021/07/12 11:22:10;;;;;;;;;9.00;9.00;;;;;27.38;59.33;100640.25;4995161;28;45400;-70
2021/07/12 11:24:35;;;;;;;;;7.50;7.50;;;;;26.85;60.13;100638.28;4996790;28;45456;-71
2021/07/12 11:27:06;;;;;;;;;10.00;8.00;;;;;26.52;60.75;100635.69;4996725;28;45579;-69
2021/07/12 11:29:36;;;;;;;;;8.75;8.25;;;;;26.27;61.35;100632.16;4996614;28;46088;-68
2021/07/12 11:32:01;;;;;;;;;9.00;8.75;;;;;26.12;62.01;100633.84;4996806;28;45333;-68